sensor_id;sensor_type;location;lat;lon;timestamp;P1;durP1;ratioP1;P2;durP2;ratioP2
10031;SDS011;5056;44.272;19.892;2023-02-14T00:00:08;57.80;;;37.53;;
10031;SDS011;5056;44.272;19.892;2023-02-14T00:02:37;58.60;;;37.90;;
10031;SDS011;5056;44.272;19.892;2023-02-14T00:05:06;59.40;;;38.67;;
10031;SDS011;5056;44.272;19.892;2023-02-14T00:07:33;52.63;;;34.70;;
10031;SDS011;5056;44.272;19.892;2023-02-14T00:10:00;46.30;;;32.00;;
10031;SDS011;5056;44.272;19.892;2023-02-14T00:12:26;49.57;;;34.67;;
10031;SDS011;5056;44.272;19.892;2023-02-14T00:14:53;52.37;;;36.67;;
10031;SDS011;5056;44.272;19.892;2023-02-14T00:17:38;49.77;;;34.50;;
10031;SDS011;5056;44.272;19.892;2023-02-14T00:20:07;48.70;;;32.47;;
10031;SDS011;5056;44.272;19.892;2023-02-14T00:22:34;56.47;;;36.63;;
10031;SDS011;5056;44.272;19.892;2023-02-14T00:25:01;56.93;;;38.60;;
10031;SDS011;5056;44.272;19.892;2023-02-14T00:27:29;71.93;;;44.97;;
10031;SDS011;5056;44.272;19.892;2023-02-14T00:29:55;67.90;;;42.43;;
10031;SDS011;5056;44.272;19.892;2023-02-14T00:32:26;54.27;;;35.63;;
10031;SDS011;5056;44.272;19.892;2023-02-14T00:34:53;52.40;;;34.10;;
10031;SDS011;5056;44.272;19.892;2023-02-14T00:37:24;56.00;;;34.70;;
10031;SDS011;5056;44.272;19.892;2023-02-14T00:39:51;53.07;;;35.50;;
10031;SDS011;5056;44.272;19.892;2023-02-14T00:42:17;64.77;;;40.77;;
10031;SDS011;5056;44.272;19.892;2023-02-14T00:44:45;61.73;;;41.17;;
10031;SDS011;5056;44.272;19.892;2023-02-14T00:47:12;62.23;;;38.37;;
10031;SDS011;5056;44.272;19.892;2023-02-14T00:49:39;57.40;;;38.60;;
10031;SDS011;5056;44.272;19.892;2023-02-14T00:52:06;64.30;;;41.50;;
10031;SDS011;5056;44.272;19.892;2023-02-14T00:54:34;64.73;;;41.20;;
10031;SDS011;5056;44.272;19.892;2023-02-14T00:57:01;59.10;;;39.70;;
10031;SDS011;5056;44.272;19.892;2023-02-14T00:59:29;55.80;;;37.87;;
10031;SDS011;5056;44.272;19.892;2023-02-14T01:01:55;50.43;;;35.60;;
10031;SDS011;5056;44.272;19.892;2023-02-14T01:04:22;58.60;;;39.30;;
10031;SDS011;5056;44.272;19.892;2023-02-14T01:06:50;60.63;;;41.47;;
10031;SDS011;5056;44.272;19.892;2023-02-14T01:09:17;59.13;;;38.97;;
10031;SDS011;5056;44.272;19.892;2023-02-14T01:11:47;57.03;;;38.23;;
10031;SDS011;5056;44.272;19.892;2023-02-14T01:14:16;54.07;;;36.43;;
10031;SDS011;5056;44.272;19.892;2023-02-14T01:16:48;65.93;;;41.47;;
10031;SDS011;5056;44.272;19.892;2023-02-14T01:19:15;64.63;;;40.97;;
10031;SDS011;5056;44.272;19.892;2023-02-14T01:21:43;58.97;;;38.80;;
10031;SDS011;5056;44.272;19.892;2023-02-14T01:26:47;57.20;;;39.03;;
10031;SDS011;5056;44.272;19.892;2023-02-14T01:29:14;63.53;;;40.37;;
10031;SDS011;5056;44.272;19.892;2023-02-14T01:31:41;53.40;;;36.83;;
10031;SDS011;5056;44.272;19.892;2023-02-14T01:34:08;57.47;;;39.03;;
10031;SDS011;5056;44.272;19.892;2023-02-14T01:36:37;62.37;;;38.87;;
10031;SDS011;5056;44.272;19.892;2023-02-14T01:39:06;61.40;;;40.40;;
10031;SDS011;5056;44.272;19.892;2023-02-14T01:41:35;61.67;;;40.93;;
10031;SDS011;5056;44.272;19.892;2023-02-14T01:44:05;91.20;;;51.10;;
10031;SDS011;5056;44.272;19.892;2023-02-14T01:46:34;68.97;;;43.47;;
10031;SDS011;5056;44.272;19.892;2023-02-14T01:49:04;70.20;;;41.73;;
10031;SDS011;5056;44.272;19.892;2023-02-14T01:51:36;96.20;;;53.43;;
10031;SDS011;5056;44.272;19.892;2023-02-14T01:54:05;78.53;;;49.00;;
10031;SDS011;5056;44.272;19.892;2023-02-14T01:56:34;63.87;;;42.17;;
10031;SDS011;5056;44.272;19.892;2023-02-14T01:59:04;56.27;;;37.03;;
10031;SDS011;5056;44.272;19.892;2023-02-14T02:01:32;53.90;;;37.43;;
10031;SDS011;5056;44.272;19.892;2023-02-14T02:04:00;53.70;;;34.57;;
10031;SDS011;5056;44.272;19.892;2023-02-14T02:06:32;49.63;;;34.80;;
10031;SDS011;5056;44.272;19.892;2023-02-14T02:09:04;47.50;;;33.30;;
10031;SDS011;5056;44.272;19.892;2023-02-14T02:11:34;41.57;;;31.63;;
10031;SDS011;5056;44.272;19.892;2023-02-14T02:14:02;44.73;;;30.43;;
10031;SDS011;5056;44.272;19.892;2023-02-14T02:16:39;39.40;;;27.27;;
10031;SDS011;5056;44.272;19.892;2023-02-14T02:19:34;40.67;;;27.20;;
10031;SDS011;5056;44.272;19.892;2023-02-14T02:25:24;48.90;;;31.57;;
10031;SDS011;5056;44.272;19.892;2023-02-14T02:28:10;60.07;;;38.80;;
10031;SDS011;5056;44.272;19.892;2023-02-14T02:31:20;98.13;;;56.03;;
10031;SDS011;5056;44.272;19.892;2023-02-14T02:37:18;90.17;;;52.57;;
10031;SDS011;5056;44.272;19.892;2023-02-14T02:39:56;83.23;;;47.53;;
10031;SDS011;5056;44.272;19.892;2023-02-14T02:42:30;75.03;;;46.43;;
10031;SDS011;5056;44.272;19.892;2023-02-14T02:45:05;70.33;;;46.27;;
10031;SDS011;5056;44.272;19.892;2023-02-14T02:47:37;57.17;;;36.83;;
10031;SDS011;5056;44.272;19.892;2023-02-14T02:50:11;43.27;;;29.33;;
10031;SDS011;5056;44.272;19.892;2023-02-14T02:53:15;40.77;;;29.47;;
10031;SDS011;5056;44.272;19.892;2023-02-14T02:55:45;62.03;;;38.47;;
10031;SDS011;5056;44.272;19.892;2023-02-14T02:58:33;57.43;;;36.23;;
10031;SDS011;5056;44.272;19.892;2023-02-14T03:01:07;50.53;;;33.07;;
10031;SDS011;5056;44.272;19.892;2023-02-14T03:03:37;47.33;;;30.23;;
10031;SDS011;5056;44.272;19.892;2023-02-14T03:06:28;40.10;;;27.03;;
10031;SDS011;5056;44.272;19.892;2023-02-14T03:08:57;44.20;;;29.90;;
10031;SDS011;5056;44.272;19.892;2023-02-14T03:11:34;42.60;;;28.97;;
10031;SDS011;5056;44.272;19.892;2023-02-14T03:14:05;41.03;;;28.87;;
10031;SDS011;5056;44.272;19.892;2023-02-14T03:16:38;35.43;;;27.47;;
10031;SDS011;5056;44.272;19.892;2023-02-14T03:19:24;33.60;;;24.50;;
10031;SDS011;5056;44.272;19.892;2023-02-14T03:22:20;28.03;;;21.57;;
10031;SDS011;5056;44.272;19.892;2023-02-14T03:24:55;28.57;;;19.43;;
10031;SDS011;5056;44.272;19.892;2023-02-14T03:27:24;22.00;;;16.83;;
10031;SDS011;5056;44.272;19.892;2023-02-14T03:29:55;25.73;;;19.37;;
10031;SDS011;5056;44.272;19.892;2023-02-14T03:32:30;25.23;;;18.50;;
10031;SDS011;5056;44.272;19.892;2023-02-14T03:35:03;24.80;;;17.90;;
10031;SDS011;5056;44.272;19.892;2023-02-14T03:37:38;30.57;;;22.53;;
10031;SDS011;5056;44.272;19.892;2023-02-14T03:40:09;28.63;;;22.00;;
10031;SDS011;5056;44.272;19.892;2023-02-14T03:42:42;29.00;;;22.23;;
10031;SDS011;5056;44.272;19.892;2023-02-14T03:45:14;27.40;;;20.70;;
10031;SDS011;5056;44.272;19.892;2023-02-14T03:47:45;25.80;;;19.73;;
10031;SDS011;5056;44.272;19.892;2023-02-14T03:50:15;25.07;;;20.00;;
10031;SDS011;5056;44.272;19.892;2023-02-14T03:52:43;24.30;;;18.57;;
10031;SDS011;5056;44.272;19.892;2023-02-14T03:55:13;25.60;;;19.80;;
10031;SDS011;5056;44.272;19.892;2023-02-14T03:57:42;30.03;;;21.73;;
10031;SDS011;5056;44.272;19.892;2023-02-14T04:00:13;26.40;;;20.63;;
10031;SDS011;5056;44.272;19.892;2023-02-14T04:02:44;29.20;;;20.90;;
10031;SDS011;5056;44.272;19.892;2023-02-14T04:05:13;29.57;;;19.70;;
10031;SDS011;5056;44.272;19.892;2023-02-14T04:07:43;21.80;;;17.43;;
10031;SDS011;5056;44.272;19.892;2023-02-14T04:12:40;20.30;;;15.40;;
10031;SDS011;5056;44.272;19.892;2023-02-14T04:15:07;21.53;;;16.43;;
10031;SDS011;5056;44.272;19.892;2023-02-14T04:17:35;23.17;;;17.17;;
10031;SDS011;5056;44.272;19.892;2023-02-14T04:20:20;23.57;;;15.80;;
10031;SDS011;5056;44.272;19.892;2023-02-14T04:22:47;20.83;;;15.17;;
10031;SDS011;5056;44.272;19.892;2023-02-14T04:25:19;18.30;;;14.00;;
10031;SDS011;5056;44.272;19.892;2023-02-14T04:27:46;21.13;;;15.03;;
10031;SDS011;5056;44.272;19.892;2023-02-14T04:30:15;19.20;;;15.20;;
10031;SDS011;5056;44.272;19.892;2023-02-14T04:32:45;23.40;;;16.23;;
10031;SDS011;5056;44.272;19.892;2023-02-14T04:35:11;22.77;;;15.83;;
10031;SDS011;5056;44.272;19.892;2023-02-14T04:37:47;23.87;;;17.83;;
10031;SDS011;5056;44.272;19.892;2023-02-14T04:40:14;26.17;;;18.07;;
10031;SDS011;5056;44.272;19.892;2023-02-14T04:42:43;26.70;;;19.37;;
10031;SDS011;5056;44.272;19.892;2023-02-14T04:45:10;34.67;;;22.30;;
10031;SDS011;5056;44.272;19.892;2023-02-14T04:47:38;30.57;;;22.30;;
10031;SDS011;5056;44.272;19.892;2023-02-14T04:50:05;28.47;;;22.10;;
10031;SDS011;5056;44.272;19.892;2023-02-14T04:52:32;36.27;;;23.63;;
10031;SDS011;5056;44.272;19.892;2023-02-14T04:55:02;33.50;;;22.40;;
10031;SDS011;5056;44.272;19.892;2023-02-14T04:57:30;33.50;;;24.03;;
10031;SDS011;5056;44.272;19.892;2023-02-14T05:00:00;31.47;;;21.53;;
10031;SDS011;5056;44.272;19.892;2023-02-14T05:02:27;29.17;;;21.97;;
10031;SDS011;5056;44.272;19.892;2023-02-14T05:04:56;33.20;;;22.33;;
10031;SDS011;5056;44.272;19.892;2023-02-14T05:07:23;32.73;;;23.33;;
10031;SDS011;5056;44.272;19.892;2023-02-14T05:09:51;30.30;;;22.23;;
10031;SDS011;5056;44.272;19.892;2023-02-14T05:12:18;30.07;;;22.40;;
10031;SDS011;5056;44.272;19.892;2023-02-14T05:14:45;29.47;;;21.00;;
10031;SDS011;5056;44.272;19.892;2023-02-14T05:17:13;25.93;;;19.40;;
10031;SDS011;5056;44.272;19.892;2023-02-14T05:19:40;24.20;;;18.17;;
10031;SDS011;5056;44.272;19.892;2023-02-14T05:22:08;23.20;;;17.43;;
10031;SDS011;5056;44.272;19.892;2023-02-14T05:24:34;23.07;;;16.73;;
10031;SDS011;5056;44.272;19.892;2023-02-14T05:27:02;21.87;;;16.23;;
10031;SDS011;5056;44.272;19.892;2023-02-14T05:29:29;21.10;;;15.33;;
10031;SDS011;5056;44.272;19.892;2023-02-14T05:31:56;24.07;;;15.27;;
10031;SDS011;5056;44.272;19.892;2023-02-14T05:34:24;19.10;;;14.77;;
10031;SDS011;5056;44.272;19.892;2023-02-14T05:36:51;20.87;;;15.47;;
10031;SDS011;5056;44.272;19.892;2023-02-14T05:39:19;21.13;;;16.07;;
10031;SDS011;5056;44.272;19.892;2023-02-14T05:41:46;19.53;;;14.40;;
10031;SDS011;5056;44.272;19.892;2023-02-14T05:44:13;22.93;;;16.13;;
10031;SDS011;5056;44.272;19.892;2023-02-14T05:46:39;24.70;;;17.17;;
10031;SDS011;5056;44.272;19.892;2023-02-14T05:49:06;27.87;;;18.53;;
10031;SDS011;5056;44.272;19.892;2023-02-14T05:51:37;26.43;;;19.40;;
10031;SDS011;5056;44.272;19.892;2023-02-14T05:54:04;27.50;;;19.47;;
10031;SDS011;5056;44.272;19.892;2023-02-14T05:56:31;23.20;;;18.03;;
10031;SDS011;5056;44.272;19.892;2023-02-14T05:58:58;26.60;;;18.33;;
10031;SDS011;5056;44.272;19.892;2023-02-14T06:01:25;26.53;;;18.70;;
10031;SDS011;5056;44.272;19.892;2023-02-14T06:03:52;24.90;;;16.80;;
10031;SDS011;5056;44.272;19.892;2023-02-14T06:06:19;23.90;;;17.43;;
10031;SDS011;5056;44.272;19.892;2023-02-14T06:08:47;23.40;;;16.43;;
10031;SDS011;5056;44.272;19.892;2023-02-14T06:11:14;24.30;;;17.70;;
10031;SDS011;5056;44.272;19.892;2023-02-14T06:13:41;26.33;;;17.80;;
10031;SDS011;5056;44.272;19.892;2023-02-14T06:16:08;28.53;;;18.97;;
10031;SDS011;5056;44.272;19.892;2023-02-14T06:18:36;30.53;;;20.97;;
10031;SDS011;5056;44.272;19.892;2023-02-14T06:21:03;32.27;;;21.77;;
10031;SDS011;5056;44.272;19.892;2023-02-14T06:23:30;33.70;;;22.47;;
10031;SDS011;5056;44.272;19.892;2023-02-14T06:25:58;34.77;;;22.43;;
10031;SDS011;5056;44.272;19.892;2023-02-14T06:28:25;29.20;;;20.63;;
10031;SDS011;5056;44.272;19.892;2023-02-14T06:30:53;32.87;;;22.33;;
10031;SDS011;5056;44.272;19.892;2023-02-14T06:33:20;34.30;;;23.33;;
10031;SDS011;5056;44.272;19.892;2023-02-14T06:35:47;34.77;;;24.07;;
10031;SDS011;5056;44.272;19.892;2023-02-14T06:38:14;35.57;;;24.67;;
10031;SDS011;5056;44.272;19.892;2023-02-14T06:40:41;30.77;;;23.13;;
10031;SDS011;5056;44.272;19.892;2023-02-14T06:43:09;31.03;;;22.77;;
10031;SDS011;5056;44.272;19.892;2023-02-14T06:45:36;33.63;;;24.20;;
10031;SDS011;5056;44.272;19.892;2023-02-14T06:48:03;31.73;;;23.53;;
10031;SDS011;5056;44.272;19.892;2023-02-14T06:50:29;41.57;;;29.27;;
10031;SDS011;5056;44.272;19.892;2023-02-14T06:52:56;49.17;;;38.83;;
10031;SDS011;5056;44.272;19.892;2023-02-14T06:55:23;61.93;;;44.83;;
10031;SDS011;5056;44.272;19.892;2023-02-14T06:57:51;52.07;;;41.03;;
10031;SDS011;5056;44.272;19.892;2023-02-14T07:00:24;56.53;;;49.60;;
10031;SDS011;5056;44.272;19.892;2023-02-14T07:02:51;49.63;;;40.70;;
10031;SDS011;5056;44.272;19.892;2023-02-14T07:05:18;42.60;;;34.33;;
10031;SDS011;5056;44.272;19.892;2023-02-14T07:07:46;44.73;;;32.60;;
10031;SDS011;5056;44.272;19.892;2023-02-14T07:10:15;62.27;;;44.00;;
10031;SDS011;5056;44.272;19.892;2023-02-14T07:12:42;60.40;;;41.57;;
10031;SDS011;5056;44.272;19.892;2023-02-14T07:15:09;50.20;;;36.83;;
10031;SDS011;5056;44.272;19.892;2023-02-14T07:17:41;43.30;;;36.27;;
10031;SDS011;5056;44.272;19.892;2023-02-14T07:20:08;45.37;;;33.63;;
10031;SDS011;5056;44.272;19.892;2023-02-14T07:22:37;40.00;;;30.60;;
10031;SDS011;5056;44.272;19.892;2023-02-14T07:25:04;35.97;;;28.60;;
10031;SDS011;5056;44.272;19.892;2023-02-14T07:27:32;31.63;;;24.80;;
10031;SDS011;5056;44.272;19.892;2023-02-14T07:30:01;37.67;;;26.97;;
10031;SDS011;5056;44.272;19.892;2023-02-14T07:32:28;36.67;;;26.40;;
10031;SDS011;5056;44.272;19.892;2023-02-14T07:34:58;32.23;;;23.67;;
10031;SDS011;5056;44.272;19.892;2023-02-14T07:37:26;29.30;;;22.60;;
10031;SDS011;5056;44.272;19.892;2023-02-14T07:39:53;28.00;;;20.80;;
10031;SDS011;5056;44.272;19.892;2023-02-14T07:42:20;32.87;;;22.03;;
10031;SDS011;5056;44.272;19.892;2023-02-14T07:44:47;25.80;;;20.03;;
10031;SDS011;5056;44.272;19.892;2023-02-14T07:47:14;27.07;;;19.73;;
10031;SDS011;5056;44.272;19.892;2023-02-14T07:49:42;24.67;;;19.57;;
10031;SDS011;5056;44.272;19.892;2023-02-14T07:52:10;26.00;;;20.67;;
10031;SDS011;5056;44.272;19.892;2023-02-14T07:54:38;27.07;;;20.37;;
10031;SDS011;5056;44.272;19.892;2023-02-14T07:57:05;29.13;;;21.30;;
10031;SDS011;5056;44.272;19.892;2023-02-14T07:59:32;27.93;;;20.80;;
10031;SDS011;5056;44.272;19.892;2023-02-14T08:01:58;30.47;;;22.07;;
10031;SDS011;5056;44.272;19.892;2023-02-14T08:04:25;30.40;;;21.73;;
10031;SDS011;5056;44.272;19.892;2023-02-14T08:06:52;29.63;;;21.43;;
10031;SDS011;5056;44.272;19.892;2023-02-14T08:09:22;31.60;;;22.70;;
10031;SDS011;5056;44.272;19.892;2023-02-14T08:11:51;27.97;;;19.47;;
10031;SDS011;5056;44.272;19.892;2023-02-14T08:14:36;23.63;;;17.60;;
10031;SDS011;5056;44.272;19.892;2023-02-14T08:17:04;28.07;;;20.00;;
10031;SDS011;5056;44.272;19.892;2023-02-14T08:19:31;23.97;;;18.07;;
10031;SDS011;5056;44.272;19.892;2023-02-14T08:21:58;23.33;;;17.83;;
10031;SDS011;5056;44.272;19.892;2023-02-14T08:24:27;27.03;;;17.70;;
10031;SDS011;5056;44.272;19.892;2023-02-14T08:26:54;23.40;;;16.60;;
10031;SDS011;5056;44.272;19.892;2023-02-14T08:29:21;22.77;;;18.00;;
10031;SDS011;5056;44.272;19.892;2023-02-14T08:31:49;24.83;;;18.20;;
10031;SDS011;5056;44.272;19.892;2023-02-14T08:34:17;22.47;;;17.63;;
10031;SDS011;5056;44.272;19.892;2023-02-14T08:36:44;28.47;;;21.17;;
10031;SDS011;5056;44.272;19.892;2023-02-14T08:39:11;29.03;;;21.63;;
10031;SDS011;5056;44.272;19.892;2023-02-14T08:41:41;25.17;;;19.10;;
10031;SDS011;5056;44.272;19.892;2023-02-14T08:44:08;26.20;;;18.93;;
10031;SDS011;5056;44.272;19.892;2023-02-14T08:46:35;27.33;;;21.17;;
10031;SDS011;5056;44.272;19.892;2023-02-14T08:49:02;24.57;;;18.57;;
10031;SDS011;5056;44.272;19.892;2023-02-14T08:51:29;28.93;;;21.67;;
10031;SDS011;5056;44.272;19.892;2023-02-14T08:53:57;24.43;;;19.73;;
10031;SDS011;5056;44.272;19.892;2023-02-14T08:56:24;25.83;;;18.83;;
10031;SDS011;5056;44.272;19.892;2023-02-14T08:58:53;26.67;;;18.37;;
10031;SDS011;5056;44.272;19.892;2023-02-14T09:01:19;24.50;;;18.27;;
10031;SDS011;5056;44.272;19.892;2023-02-14T09:03:46;22.40;;;16.07;;
10031;SDS011;5056;44.272;19.892;2023-02-14T09:06:14;24.40;;;18.77;;
10031;SDS011;5056;44.272;19.892;2023-02-14T09:08:42;23.30;;;18.53;;
10031;SDS011;5056;44.272;19.892;2023-02-14T09:11:13;25.70;;;16.60;;
10031;SDS011;5056;44.272;19.892;2023-02-14T09:13:42;20.60;;;15.60;;
10031;SDS011;5056;44.272;19.892;2023-02-14T09:16:12;18.27;;;15.53;;
10031;SDS011;5056;44.272;19.892;2023-02-14T09:18:41;20.70;;;17.20;;
10031;SDS011;5056;44.272;19.892;2023-02-14T09:21:22;22.70;;;14.80;;
10031;SDS011;5056;44.272;19.892;2023-02-14T09:23:53;15.03;;;12.60;;
10031;SDS011;5056;44.272;19.892;2023-02-14T09:26:19;19.30;;;13.73;;
10031;SDS011;5056;44.272;19.892;2023-02-14T09:28:47;24.40;;;18.17;;
10031;SDS011;5056;44.272;19.892;2023-02-14T09:31:16;21.60;;;15.37;;
10031;SDS011;5056;44.272;19.892;2023-02-14T09:33:45;21.27;;;18.87;;
10031;SDS011;5056;44.272;19.892;2023-02-14T09:36:16;26.30;;;20.27;;
10031;SDS011;5056;44.272;19.892;2023-02-14T09:39:00;26.43;;;18.73;;
10031;SDS011;5056;44.272;19.892;2023-02-14T09:41:45;27.93;;;18.63;;
10031;SDS011;5056;44.272;19.892;2023-02-14T09:44:23;23.17;;;15.80;;
10031;SDS011;5056;44.272;19.892;2023-02-14T09:46:58;19.03;;;15.87;;
10031;SDS011;5056;44.272;19.892;2023-02-14T09:49:32;23.13;;;17.50;;
10031;SDS011;5056;44.272;19.892;2023-02-14T09:52:02;24.47;;;17.90;;
10031;SDS011;5056;44.272;19.892;2023-02-14T09:54:30;21.63;;;17.77;;
10031;SDS011;5056;44.272;19.892;2023-02-14T09:56:59;23.93;;;17.60;;
10031;SDS011;5056;44.272;19.892;2023-02-14T09:59:30;21.37;;;15.70;;
10031;SDS011;5056;44.272;19.892;2023-02-14T10:02:14;23.43;;;16.60;;
10031;SDS011;5056;44.272;19.892;2023-02-14T10:04:50;19.47;;;15.07;;
10031;SDS011;5056;44.272;19.892;2023-02-14T10:07:24;23.00;;;15.20;;
10031;SDS011;5056;44.272;19.892;2023-02-14T10:09:59;23.77;;;17.50;;
10031;SDS011;5056;44.272;19.892;2023-02-14T10:12:30;25.00;;;18.00;;
10031;SDS011;5056;44.272;19.892;2023-02-14T10:15:01;19.60;;;16.20;;
10031;SDS011;5056;44.272;19.892;2023-02-14T10:17:35;19.93;;;16.23;;
10031;SDS011;5056;44.272;19.892;2023-02-14T10:20:14;18.17;;;14.73;;
10031;SDS011;5056;44.272;19.892;2023-02-14T10:22:49;17.27;;;14.23;;
10031;SDS011;5056;44.272;19.892;2023-02-14T10:25:21;17.77;;;14.70;;
10031;SDS011;5056;44.272;19.892;2023-02-14T10:27:51;21.20;;;16.53;;
10031;SDS011;5056;44.272;19.892;2023-02-14T10:30:26;20.73;;;15.80;;
10031;SDS011;5056;44.272;19.892;2023-02-14T10:33:41;23.63;;;17.00;;
10031;SDS011;5056;44.272;19.892;2023-02-14T10:36:14;22.07;;;16.20;;
10031;SDS011;5056;44.272;19.892;2023-02-14T10:38:48;21.30;;;16.37;;
10031;SDS011;5056;44.272;19.892;2023-02-14T10:41:24;24.20;;;16.80;;
10031;SDS011;5056;44.272;19.892;2023-02-14T10:43:58;19.67;;;15.80;;
10031;SDS011;5056;44.272;19.892;2023-02-14T10:46:38;21.83;;;16.37;;
10031;SDS011;5056;44.272;19.892;2023-02-14T10:49:15;24.70;;;19.40;;
10031;SDS011;5056;44.272;19.892;2023-02-14T10:51:54;23.17;;;18.10;;
10031;SDS011;5056;44.272;19.892;2023-02-14T10:54:26;27.13;;;19.20;;
10031;SDS011;5056;44.272;19.892;2023-02-14T10:56:54;26.60;;;21.77;;
10031;SDS011;5056;44.272;19.892;2023-02-14T10:59:26;28.10;;;21.83;;
10031;SDS011;5056;44.272;19.892;2023-02-14T11:01:55;27.20;;;17.40;;
10031;SDS011;5056;44.272;19.892;2023-02-14T11:04:27;17.83;;;15.27;;
10031;SDS011;5056;44.272;19.892;2023-02-14T11:06:59;18.33;;;16.53;;
10031;SDS011;5056;44.272;19.892;2023-02-14T11:09:33;19.67;;;16.67;;
10031;SDS011;5056;44.272;19.892;2023-02-14T11:12:00;18.00;;;14.23;;
10031;SDS011;5056;44.272;19.892;2023-02-14T11:14:28;17.03;;;14.67;;
10031;SDS011;5056;44.272;19.892;2023-02-14T11:16:56;17.77;;;13.97;;
10031;SDS011;5056;44.272;19.892;2023-02-14T11:19:25;17.47;;;13.83;;
10031;SDS011;5056;44.272;19.892;2023-02-14T11:22:03;16.70;;;14.43;;
10031;SDS011;5056;44.272;19.892;2023-02-14T11:24:34;20.33;;;15.30;;
10031;SDS011;5056;44.272;19.892;2023-02-14T11:27:03;18.87;;;15.70;;
10031;SDS011;5056;44.272;19.892;2023-02-14T11:29:34;18.27;;;14.37;;
10031;SDS011;5056;44.272;19.892;2023-02-14T11:32:05;17.57;;;14.67;;
10031;SDS011;5056;44.272;19.892;2023-02-14T11:34:36;20.90;;;14.87;;
10031;SDS011;5056;44.272;19.892;2023-02-14T11:37:14;20.60;;;15.83;;
10031;SDS011;5056;44.272;19.892;2023-02-14T11:39:42;19.23;;;13.97;;
10031;SDS011;5056;44.272;19.892;2023-02-14T11:42:10;23.23;;;15.13;;
10031;SDS011;5056;44.272;19.892;2023-02-14T11:44:38;16.93;;;15.13;;
10031;SDS011;5056;44.272;19.892;2023-02-14T11:47:24;23.13;;;18.00;;
10031;SDS011;5056;44.272;19.892;2023-02-14T11:49:56;23.83;;;18.23;;
10031;SDS011;5056;44.272;19.892;2023-02-14T11:52:25;25.03;;;17.30;;
10031;SDS011;5056;44.272;19.892;2023-02-14T11:54:56;23.93;;;20.23;;
10031;SDS011;5056;44.272;19.892;2023-02-14T11:57:23;24.83;;;18.97;;
10031;SDS011;5056;44.272;19.892;2023-02-14T11:59:53;27.10;;;20.30;;
10031;SDS011;5056;44.272;19.892;2023-02-14T12:02:23;25.70;;;18.70;;
10031;SDS011;5056;44.272;19.892;2023-02-14T12:04:55;26.50;;;17.87;;
10031;SDS011;5056;44.272;19.892;2023-02-14T12:07:25;25.63;;;18.57;;
10031;SDS011;5056;44.272;19.892;2023-02-14T12:12:55;26.73;;;19.43;;
10031;SDS011;5056;44.272;19.892;2023-02-14T12:15:25;25.77;;;17.90;;
10031;SDS011;5056;44.272;19.892;2023-02-14T12:17:55;18.40;;;15.97;;
10031;SDS011;5056;44.272;19.892;2023-02-14T12:20:34;17.67;;;15.77;;
10031;SDS011;5056;44.272;19.892;2023-02-14T12:23:08;20.37;;;16.17;;
10031;SDS011;5056;44.272;19.892;2023-02-14T12:25:39;21.57;;;17.00;;
10031;SDS011;5056;44.272;19.892;2023-02-14T12:28:08;19.07;;;16.53;;
10031;SDS011;5056;44.272;19.892;2023-02-14T12:30:37;21.33;;;15.63;;
10031;SDS011;5056;44.272;19.892;2023-02-14T12:33:09;18.40;;;15.87;;
10031;SDS011;5056;44.272;19.892;2023-02-14T12:35:49;19.90;;;17.03;;
10031;SDS011;5056;44.272;19.892;2023-02-14T12:38:22;18.53;;;15.60;;
10031;SDS011;5056;44.272;19.892;2023-02-14T12:40:57;28.30;;;20.57;;
10031;SDS011;5056;44.272;19.892;2023-02-14T12:43:33;30.77;;;21.43;;
10031;SDS011;5056;44.272;19.892;2023-02-14T12:49:38;23.30;;;17.80;;
10031;SDS011;5056;44.272;19.892;2023-02-14T12:52:31;21.57;;;17.07;;
10031;SDS011;5056;44.272;19.892;2023-02-14T12:55:13;20.83;;;17.97;;
10031;SDS011;5056;44.272;19.892;2023-02-14T12:57:50;25.50;;;20.50;;
10031;SDS011;5056;44.272;19.892;2023-02-14T13:00:22;23.60;;;19.30;;
10031;SDS011;5056;44.272;19.892;2023-02-14T13:03:02;23.27;;;19.87;;
10031;SDS011;5056;44.272;19.892;2023-02-14T13:05:43;20.70;;;15.90;;
10031;SDS011;5056;44.272;19.892;2023-02-14T13:08:17;21.13;;;17.33;;
10031;SDS011;5056;44.272;19.892;2023-02-14T13:10:52;20.03;;;16.80;;
10031;SDS011;5056;44.272;19.892;2023-02-14T13:13:24;19.53;;;16.73;;
10031;SDS011;5056;44.272;19.892;2023-02-14T13:15:57;21.47;;;16.77;;
10031;SDS011;5056;44.272;19.892;2023-02-14T13:18:34;24.43;;;17.07;;
10031;SDS011;5056;44.272;19.892;2023-02-14T13:21:18;22.57;;;17.70;;
10031;SDS011;5056;44.272;19.892;2023-02-14T13:23:53;23.40;;;18.47;;
10031;SDS011;5056;44.272;19.892;2023-02-14T13:26:23;25.27;;;19.03;;
10031;SDS011;5056;44.272;19.892;2023-02-14T13:29:02;21.77;;;17.33;;
10031;SDS011;5056;44.272;19.892;2023-02-14T13:31:32;19.40;;;16.27;;
10031;SDS011;5056;44.272;19.892;2023-02-14T13:34:02;23.33;;;18.00;;
10031;SDS011;5056;44.272;19.892;2023-02-14T13:36:34;27.60;;;20.23;;
10031;SDS011;5056;44.272;19.892;2023-02-14T13:39:06;32.60;;;21.90;;
10031;SDS011;5056;44.272;19.892;2023-02-14T13:41:33;26.50;;;17.93;;
10031;SDS011;5056;44.272;19.892;2023-02-14T13:44:00;22.33;;;17.47;;
10031;SDS011;5056;44.272;19.892;2023-02-14T13:58:13;25.27;;;19.43;;
10031;SDS011;5056;44.272;19.892;2023-02-14T14:00:42;34.40;;;25.67;;
10031;SDS011;5056;44.272;19.892;2023-02-14T14:03:14;35.87;;;24.27;;
10031;SDS011;5056;44.272;19.892;2023-02-14T14:06:21;28.77;;;22.33;;
10031;SDS011;5056;44.272;19.892;2023-02-14T14:08:49;29.47;;;22.43;;
10031;SDS011;5056;44.272;19.892;2023-02-14T14:14:28;25.80;;;18.97;;
10031;SDS011;5056;44.272;19.892;2023-02-14T14:17:00;24.93;;;20.50;;
10031;SDS011;5056;44.272;19.892;2023-02-14T14:26:28;26.23;;;17.93;;
10031;SDS011;5056;44.272;19.892;2023-02-14T14:28:57;26.00;;;18.57;;
10031;SDS011;5056;44.272;19.892;2023-02-14T14:31:27;24.30;;;18.27;;
10031;SDS011;5056;44.272;19.892;2023-02-14T14:34:00;29.07;;;22.83;;
10031;SDS011;5056;44.272;19.892;2023-02-14T14:36:28;26.23;;;20.77;;
10031;SDS011;5056;44.272;19.892;2023-02-14T14:38:56;28.37;;;21.83;;
10031;SDS011;5056;44.272;19.892;2023-02-14T14:41:27;27.40;;;21.27;;
10031;SDS011;5056;44.272;19.892;2023-02-14T14:43:56;29.30;;;22.73;;
10031;SDS011;5056;44.272;19.892;2023-02-14T14:46:23;23.53;;;18.90;;
10031;SDS011;5056;44.272;19.892;2023-02-14T14:48:52;25.23;;;19.37;;
10031;SDS011;5056;44.272;19.892;2023-02-14T14:51:21;28.20;;;22.57;;
10031;SDS011;5056;44.272;19.892;2023-02-14T14:53:51;32.07;;;24.07;;
10031;SDS011;5056;44.272;19.892;2023-02-14T14:56:21;34.50;;;23.83;;
10031;SDS011;5056;44.272;19.892;2023-02-14T14:58:48;26.87;;;21.47;;
10031;SDS011;5056;44.272;19.892;2023-02-14T15:04:10;29.43;;;21.97;;
10031;SDS011;5056;44.272;19.892;2023-02-14T15:06:43;30.70;;;23.63;;
10031;SDS011;5056;44.272;19.892;2023-02-14T15:09:14;27.73;;;23.03;;
10031;SDS011;5056;44.272;19.892;2023-02-14T15:11:44;32.37;;;24.53;;
10031;SDS011;5056;44.272;19.892;2023-02-14T15:14:29;30.53;;;23.50;;
10031;SDS011;5056;44.272;19.892;2023-02-14T15:17:02;32.87;;;24.13;;
10031;SDS011;5056;44.272;19.892;2023-02-14T15:19:33;35.83;;;27.13;;
10031;SDS011;5056;44.272;19.892;2023-02-14T15:22:03;40.43;;;27.53;;
10031;SDS011;5056;44.272;19.892;2023-02-14T15:24:31;32.60;;;25.17;;